sensor_id;sensor_type;location;lat;lon;timestamp;temperature;humidity
12329;DHT22;6230;52.390;10.256;2024-02-04T00:00:21;11.90;74.90
12329;DHT22;6230;52.390;10.256;2024-02-04T00:02:46;11.90;74.90
12329;DHT22;6230;52.390;10.256;2024-02-04T00:05:12;11.90;74.90
12329;DHT22;6230;52.390;10.256;2024-02-04T00:07:37;11.80;74.80
12329;DHT22;6230;52.390;10.256;2024-02-04T00:10:03;11.80;74.90
12329;DHT22;6230;52.390;10.256;2024-02-04T00:12:29;11.80;74.90
12329;DHT22;6230;52.390;10.256;2024-02-04T00:14:54;11.70;74.90
12329;DHT22;6230;52.390;10.256;2024-02-04T00:17:20;11.70;75.00
12329;DHT22;6230;52.390;10.256;2024-02-04T00:19:45;11.70;75.00
12329;DHT22;6230;52.390;10.256;2024-02-04T00:22:11;11.70;75.00
12329;DHT22;6230;52.390;10.256;2024-02-04T00:24:36;11.60;75.00
12329;DHT22;6230;52.390;10.256;2024-02-04T00:27:02;11.60;75.00
12329;DHT22;6230;52.390;10.256;2024-02-04T00:29:28;11.60;74.90
12329;DHT22;6230;52.390;10.256;2024-02-04T00:31:53;11.60;74.90
12329;DHT22;6230;52.390;10.256;2024-02-04T00:34:19;11.60;74.90
12329;DHT22;6230;52.390;10.256;2024-02-04T00:36:45;11.60;74.90
12329;DHT22;6230;52.390;10.256;2024-02-04T00:39:10;11.60;74.80
12329;DHT22;6230;52.390;10.256;2024-02-04T00:41:36;11.60;74.80
12329;DHT22;6230;52.390;10.256;2024-02-04T00:44:02;11.50;74.60
12329;DHT22;6230;52.390;10.256;2024-02-04T00:46:28;11.50;74.70
12329;DHT22;6230;52.390;10.256;2024-02-04T00:48:53;11.50;74.70
12329;DHT22;6230;52.390;10.256;2024-02-04T00:51:20;11.50;74.80
12329;DHT22;6230;52.390;10.256;2024-02-04T00:53:46;11.40;74.80
12329;DHT22;6230;52.390;10.256;2024-02-04T00:56:12;11.40;74.70
12329;DHT22;6230;52.390;10.256;2024-02-04T00:58:38;11.40;74.80
12329;DHT22;6230;52.390;10.256;2024-02-04T01:01:04;11.40;74.80
12329;DHT22;6230;52.390;10.256;2024-02-04T01:03:30;11.40;74.80
12329;DHT22;6230;52.390;10.256;2024-02-04T01:05:56;11.40;74.80
12329;DHT22;6230;52.390;10.256;2024-02-04T01:08:22;11.30;74.80
12329;DHT22;6230;52.390;10.256;2024-02-04T01:10:48;11.30;74.80
12329;DHT22;6230;52.390;10.256;2024-02-04T01:13:16;11.30;74.80
12329;DHT22;6230;52.390;10.256;2024-02-04T01:15:42;11.30;74.80
12329;DHT22;6230;52.390;10.256;2024-02-04T01:18:07;11.30;74.80
12329;DHT22;6230;52.390;10.256;2024-02-04T01:20:33;11.30;74.80
12329;DHT22;6230;52.390;10.256;2024-02-04T01:22:59;11.30;75.40
12329;DHT22;6230;52.390;10.256;2024-02-04T01:25:24;11.30;74.70
12329;DHT22;6230;52.390;10.256;2024-02-04T01:27:50;11.30;74.70
12329;DHT22;6230;52.390;10.256;2024-02-04T01:30:16;11.30;75.20
12329;DHT22;6230;52.390;10.256;2024-02-04T01:32:41;11.30;74.70
12329;DHT22;6230;52.390;10.256;2024-02-04T01:35:07;11.30;74.70
12329;DHT22;6230;52.390;10.256;2024-02-04T01:37:33;11.30;74.70
12329;DHT22;6230;52.390;10.256;2024-02-04T01:39:58;11.30;74.70
12329;DHT22;6230;52.390;10.256;2024-02-04T01:42:24;11.20;74.60
12329;DHT22;6230;52.390;10.256;2024-02-04T01:44:50;11.20;74.60
12329;DHT22;6230;52.390;10.256;2024-02-04T01:47:16;11.20;74.60
12329;DHT22;6230;52.390;10.256;2024-02-04T01:49:43;11.20;74.50
12329;DHT22;6230;52.390;10.256;2024-02-04T01:52:08;11.20;74.60
12329;DHT22;6230;52.390;10.256;2024-02-04T01:54:37;11.20;74.50
12329;DHT22;6230;52.390;10.256;2024-02-04T01:57:04;11.20;74.60
12329;DHT22;6230;52.390;10.256;2024-02-04T01:59:30;11.20;74.60
12329;DHT22;6230;52.390;10.256;2024-02-04T02:02:05;11.20;74.60
12329;DHT22;6230;52.390;10.256;2024-02-04T02:04:31;11.20;74.70
12329;DHT22;6230;52.390;10.256;2024-02-04T02:06:56;11.20;74.60
12329;DHT22;6230;52.390;10.256;2024-02-04T02:09:24;11.10;74.70
12329;DHT22;6230;52.390;10.256;2024-02-04T02:12:10;11.10;74.70
12329;DHT22;6230;52.390;10.256;2024-02-04T02:14:39;11.10;74.70
12329;DHT22;6230;52.390;10.256;2024-02-04T02:17:11;11.10;74.70
12329;DHT22;6230;52.390;10.256;2024-02-04T02:19:52;11.10;74.80
12329;DHT22;6230;52.390;10.256;2024-02-04T02:22:28;11.10;74.80
12329;DHT22;6230;52.390;10.256;2024-02-04T02:24:56;11.10;74.80
12329;DHT22;6230;52.390;10.256;2024-02-04T02:27:22;11.10;74.80
12329;DHT22;6230;52.390;10.256;2024-02-04T02:29:48;11.10;74.80
12329;DHT22;6230;52.390;10.256;2024-02-04T02:32:14;11.10;74.80
12329;DHT22;6230;52.390;10.256;2024-02-04T02:34:39;11.10;74.80
12329;DHT22;6230;52.390;10.256;2024-02-04T02:42:25;11.20;74.90
12329;DHT22;6230;52.390;10.256;2024-02-04T02:44:52;11.20;74.90
12329;DHT22;6230;52.390;10.256;2024-02-04T02:47:19;11.20;74.90
12329;DHT22;6230;52.390;10.256;2024-02-04T02:49:46;11.20;74.90
12329;DHT22;6230;52.390;10.256;2024-02-04T02:52:12;11.20;74.90
12329;DHT22;6230;52.390;10.256;2024-02-04T02:54:38;11.20;74.90
12329;DHT22;6230;52.390;10.256;2024-02-04T02:57:04;11.20;74.90
12329;DHT22;6230;52.390;10.256;2024-02-04T02:59:29;11.20;74.90
12329;DHT22;6230;52.390;10.256;2024-02-04T03:01:56;11.20;74.90
12329;DHT22;6230;52.390;10.256;2024-02-04T03:04:22;11.20;74.90
12329;DHT22;6230;52.390;10.256;2024-02-04T03:06:47;11.20;74.90
12329;DHT22;6230;52.390;10.256;2024-02-04T03:09:13;11.20;74.90
12329;DHT22;6230;52.390;10.256;2024-02-04T03:11:38;11.30;75.70
12329;DHT22;6230;52.390;10.256;2024-02-04T03:14:04;11.30;74.90
12329;DHT22;6230;52.390;10.256;2024-02-04T03:16:29;11.30;74.80
12329;DHT22;6230;52.390;10.256;2024-02-04T03:18:55;11.30;74.80
12329;DHT22;6230;52.390;10.256;2024-02-04T03:21:20;11.30;74.80
12329;DHT22;6230;52.390;10.256;2024-02-04T03:23:46;11.40;74.80
12329;DHT22;6230;52.390;10.256;2024-02-04T03:26:16;11.40;74.90
12329;DHT22;6230;52.390;10.256;2024-02-04T03:28:44;11.40;74.90
12329;DHT22;6230;52.390;10.256;2024-02-04T03:31:09;11.40;74.90
12329;DHT22;6230;52.390;10.256;2024-02-04T03:33:35;11.40;74.90
12329;DHT22;6230;52.390;10.256;2024-02-04T03:36:00;11.40;74.90
12329;DHT22;6230;52.390;10.256;2024-02-04T03:38:26;11.40;74.90
12329;DHT22;6230;52.390;10.256;2024-02-04T03:40:52;11.40;74.80
12329;DHT22;6230;52.390;10.256;2024-02-04T03:43:17;11.50;74.80
12329;DHT22;6230;52.390;10.256;2024-02-04T03:45:43;11.50;74.80
12329;DHT22;6230;52.390;10.256;2024-02-04T03:48:08;11.50;74.80
12329;DHT22;6230;52.390;10.256;2024-02-04T03:50:35;11.50;74.70
12329;DHT22;6230;52.390;10.256;2024-02-04T03:53:01;11.50;74.80
12329;DHT22;6230;52.390;10.256;2024-02-04T03:55:27;11.50;74.80
12329;DHT22;6230;52.390;10.256;2024-02-04T03:57:54;11.40;74.80
12329;DHT22;6230;52.390;10.256;2024-02-04T04:00:19;11.40;74.70
12329;DHT22;6230;52.390;10.256;2024-02-04T04:02:45;11.40;74.90
12329;DHT22;6230;52.390;10.256;2024-02-04T04:05:11;11.40;74.80
12329;DHT22;6230;52.390;10.256;2024-02-04T04:07:39;11.40;74.80
12329;DHT22;6230;52.390;10.256;2024-02-04T04:10:05;11.40;74.80
12329;DHT22;6230;52.390;10.256;2024-02-04T04:12:30;11.40;74.80
12329;DHT22;6230;52.390;10.256;2024-02-04T04:14:56;11.40;74.80
12329;DHT22;6230;52.390;10.256;2024-02-04T04:17:22;11.40;74.80
12329;DHT22;6230;52.390;10.256;2024-02-04T04:19:47;11.40;74.80
12329;DHT22;6230;52.390;10.256;2024-02-04T04:22:13;11.40;74.80
12329;DHT22;6230;52.390;10.256;2024-02-04T04:24:38;11.50;74.90
12329;DHT22;6230;52.390;10.256;2024-02-04T04:27:04;11.40;74.90
12329;DHT22;6230;52.390;10.256;2024-02-04T04:29:29;11.50;74.80
12329;DHT22;6230;52.390;10.256;2024-02-04T04:31:55;11.50;74.80
12329;DHT22;6230;52.390;10.256;2024-02-04T04:34:20;11.50;74.70
12329;DHT22;6230;52.390;10.256;2024-02-04T04:36:46;11.50;74.70
12329;DHT22;6230;52.390;10.256;2024-02-04T04:39:12;11.50;74.70
12329;DHT22;6230;52.390;10.256;2024-02-04T04:41:39;11.50;74.70
12329;DHT22;6230;52.390;10.256;2024-02-04T04:44:05;11.50;74.70
12329;DHT22;6230;52.390;10.256;2024-02-04T04:46:31;11.50;74.80
12329;DHT22;6230;52.390;10.256;2024-02-04T04:48:56;11.50;74.80
12329;DHT22;6230;52.390;10.256;2024-02-04T04:51:23;11.50;74.80
12329;DHT22;6230;52.390;10.256;2024-02-04T04:53:49;11.50;74.80
12329;DHT22;6230;52.390;10.256;2024-02-04T04:56:15;11.50;74.70
12329;DHT22;6230;52.390;10.256;2024-02-04T04:58:40;11.40;74.70
12329;DHT22;6230;52.390;10.256;2024-02-04T05:01:06;11.40;74.60
12329;DHT22;6230;52.390;10.256;2024-02-04T05:03:31;11.40;74.60
12329;DHT22;6230;52.390;10.256;2024-02-04T05:05:58;11.40;74.60
12329;DHT22;6230;52.390;10.256;2024-02-04T05:08:23;11.30;74.60
12329;DHT22;6230;52.390;10.256;2024-02-04T05:10:49;11.40;74.70
12329;DHT22;6230;52.390;10.256;2024-02-04T05:13:14;11.30;74.70
12329;DHT22;6230;52.390;10.256;2024-02-04T05:15:40;11.30;74.70
12329;DHT22;6230;52.390;10.256;2024-02-04T05:18:05;11.30;74.60
12329;DHT22;6230;52.390;10.256;2024-02-04T05:20:31;11.20;75.30
12329;DHT22;6230;52.390;10.256;2024-02-04T05:22:56;11.20;74.50
12329;DHT22;6230;52.390;10.256;2024-02-04T05:25:23;11.20;74.50
12329;DHT22;6230;52.390;10.256;2024-02-04T05:27:48;11.20;74.50
12329;DHT22;6230;52.390;10.256;2024-02-04T05:30:14;11.20;74.50
12329;DHT22;6230;52.390;10.256;2024-02-04T05:32:41;11.20;74.50
12329;DHT22;6230;52.390;10.256;2024-02-04T05:35:07;11.10;74.50
12329;DHT22;6230;52.390;10.256;2024-02-04T05:37:33;11.10;74.40
12329;DHT22;6230;52.390;10.256;2024-02-04T05:39:59;11.10;74.50
12329;DHT22;6230;52.390;10.256;2024-02-04T05:42:24;11.10;74.50
12329;DHT22;6230;52.390;10.256;2024-02-04T05:44:50;11.10;74.50
12329;DHT22;6230;52.390;10.256;2024-02-04T05:47:16;11.00;74.50
12329;DHT22;6230;52.390;10.256;2024-02-04T05:49:41;11.00;74.60
12329;DHT22;6230;52.390;10.256;2024-02-04T05:52:07;11.00;74.50
12329;DHT22;6230;52.390;10.256;2024-02-04T05:54:37;11.00;75.20
12329;DHT22;6230;52.390;10.256;2024-02-04T05:57:03;11.00;74.50
12329;DHT22;6230;52.390;10.256;2024-02-04T05:59:28;11.00;74.50
12329;DHT22;6230;52.390;10.256;2024-02-04T06:01:54;11.00;74.50
12329;DHT22;6230;52.390;10.256;2024-02-04T06:04:19;11.00;74.50
12329;DHT22;6230;52.390;10.256;2024-02-04T06:06:46;11.00;74.50
12329;DHT22;6230;52.390;10.256;2024-02-04T06:09:11;11.00;74.50
12329;DHT22;6230;52.390;10.256;2024-02-04T06:11:37;11.00;74.50
12329;DHT22;6230;52.390;10.256;2024-02-04T06:14:02;11.00;74.50
12329;DHT22;6230;52.390;10.256;2024-02-04T06:16:28;11.00;74.40
12329;DHT22;6230;52.390;10.256;2024-02-04T06:18:53;11.00;74.40
12329;DHT22;6230;52.390;10.256;2024-02-04T06:21:23;11.10;74.50
12329;DHT22;6230;52.390;10.256;2024-02-04T06:23:49;11.00;74.40
12329;DHT22;6230;52.390;10.256;2024-02-04T06:26:15;11.10;74.40
12329;DHT22;6230;52.390;10.256;2024-02-04T06:28:40;11.10;74.40
12329;DHT22;6230;52.390;10.256;2024-02-04T06:31:09;11.10;74.30
12329;DHT22;6230;52.390;10.256;2024-02-04T06:33:34;11.10;74.20
12329;DHT22;6230;52.390;10.256;2024-02-04T06:36:00;11.10;74.20
12329;DHT22;6230;52.390;10.256;2024-02-04T06:38:25;11.10;74.20
12329;DHT22;6230;52.390;10.256;2024-02-04T06:40:51;11.10;74.10
12329;DHT22;6230;52.390;10.256;2024-02-04T06:43:16;11.10;74.10
12329;DHT22;6230;52.390;10.256;2024-02-04T06:45:42;11.10;74.10
12329;DHT22;6230;52.390;10.256;2024-02-04T06:48:08;11.10;74.20
12329;DHT22;6230;52.390;10.256;2024-02-04T06:50:35;11.10;74.10
12329;DHT22;6230;52.390;10.256;2024-02-04T06:53:00;11.10;74.20
12329;DHT22;6230;52.390;10.256;2024-02-04T06:55:26;11.00;74.20
12329;DHT22;6230;52.390;10.256;2024-02-04T06:57:51;11.10;74.30
12329;DHT22;6230;52.390;10.256;2024-02-04T07:00:17;11.00;74.30
12329;DHT22;6230;52.390;10.256;2024-02-04T07:02:43;11.00;75.00
12329;DHT22;6230;52.390;10.256;2024-02-04T07:05:08;11.00;74.30
12329;DHT22;6230;52.390;10.256;2024-02-04T07:07:35;11.00;74.20
12329;DHT22;6230;52.390;10.256;2024-02-04T07:10:02;11.00;74.20
12329;DHT22;6230;52.390;10.256;2024-02-04T07:12:27;11.00;74.20
12329;DHT22;6230;52.390;10.256;2024-02-04T07:14:54;11.00;74.20
12329;DHT22;6230;52.390;10.256;2024-02-04T07:17:19;11.00;74.30
12329;DHT22;6230;52.390;10.256;2024-02-04T07:19:45;11.00;74.20
12329;DHT22;6230;52.390;10.256;2024-02-04T07:22:10;11.00;74.30
12329;DHT22;6230;52.390;10.256;2024-02-04T07:24:36;11.00;74.20
12329;DHT22;6230;52.390;10.256;2024-02-04T07:27:02;11.00;74.20
12329;DHT22;6230;52.390;10.256;2024-02-04T07:29:27;11.00;74.20
12329;DHT22;6230;52.390;10.256;2024-02-04T07:31:53;11.00;74.20
12329;DHT22;6230;52.390;10.256;2024-02-04T07:34:19;11.00;74.10
12329;DHT22;6230;52.390;10.256;2024-02-04T07:36:44;11.00;74.20
12329;DHT22;6230;52.390;10.256;2024-02-04T07:39:10;11.00;74.10
12329;DHT22;6230;52.390;10.256;2024-02-04T07:41:36;11.10;74.20
12329;DHT22;6230;52.390;10.256;2024-02-04T07:44:02;11.10;74.20
12329;DHT22;6230;52.390;10.256;2024-02-04T07:46:27;11.10;74.10
12329;DHT22;6230;52.390;10.256;2024-02-04T07:48:53;11.10;74.10
12329;DHT22;6230;52.390;10.256;2024-02-04T07:51:18;11.10;74.00
12329;DHT22;6230;52.390;10.256;2024-02-04T07:53:45;11.20;74.00
12329;DHT22;6230;52.390;10.256;2024-02-04T07:56:11;11.20;74.00
12329;DHT22;6230;52.390;10.256;2024-02-04T07:58:36;11.20;74.00
12329;DHT22;6230;52.390;10.256;2024-02-04T08:01:02;11.20;74.00
12329;DHT22;6230;52.390;10.256;2024-02-04T08:03:28;11.20;73.90
12329;DHT22;6230;52.390;10.256;2024-02-04T08:05:54;11.20;73.90
12329;DHT22;6230;52.390;10.256;2024-02-04T08:08:19;11.20;73.90
12329;DHT22;6230;52.390;10.256;2024-02-04T08:10:45;11.20;73.90
12329;DHT22;6230;52.390;10.256;2024-02-04T08:13:10;11.20;73.80
12329;DHT22;6230;52.390;10.256;2024-02-04T08:15:36;11.20;73.80
12329;DHT22;6230;52.390;10.256;2024-02-04T08:18:02;11.20;73.80
12329;DHT22;6230;52.390;10.256;2024-02-04T08:20:27;11.20;73.80
12329;DHT22;6230;52.390;10.256;2024-02-04T08:22:54;11.20;73.80
12329;DHT22;6230;52.390;10.256;2024-02-04T08:25:20;11.30;73.90
12329;DHT22;6230;52.390;10.256;2024-02-04T08:27:46;11.30;73.80
12329;DHT22;6230;52.390;10.256;2024-02-04T08:30:11;11.30;73.80
12329;DHT22;6230;52.390;10.256;2024-02-04T08:32:38;11.30;73.80
12329;DHT22;6230;52.390;10.256;2024-02-04T08:35:04;11.30;73.80
12329;DHT22;6230;52.390;10.256;2024-02-04T08:37:31;11.30;73.80
12329;DHT22;6230;52.390;10.256;2024-02-04T08:39:57;11.40;73.80
12329;DHT22;6230;52.390;10.256;2024-02-04T08:42:22;11.40;73.80
12329;DHT22;6230;52.390;10.256;2024-02-04T08:44:48;11.40;73.80
12329;DHT22;6230;52.390;10.256;2024-02-04T08:47:13;11.40;73.80
12329;DHT22;6230;52.390;10.256;2024-02-04T08:49:41;11.50;73.80
12329;DHT22;6230;52.390;10.256;2024-02-04T08:52:06;11.50;73.70
12329;DHT22;6230;52.390;10.256;2024-02-04T08:54:32;11.50;73.70
12329;DHT22;6230;52.390;10.256;2024-02-04T08:56:58;11.50;73.80
12329;DHT22;6230;52.390;10.256;2024-02-04T08:59:23;11.50;73.70
12329;DHT22;6230;52.390;10.256;2024-02-04T09:01:50;11.50;73.70
12329;DHT22;6230;52.390;10.256;2024-02-04T09:04:15;11.50;73.70
12329;DHT22;6230;52.390;10.256;2024-02-04T09:06:41;11.50;73.70
12329;DHT22;6230;52.390;10.256;2024-02-04T09:09:06;11.60;73.80
12329;DHT22;6230;52.390;10.256;2024-02-04T09:11:33;11.60;73.80
12329;DHT22;6230;52.390;10.256;2024-02-04T09:13:59;11.60;73.80
12329;DHT22;6230;52.390;10.256;2024-02-04T09:16:25;11.60;73.70
12329;DHT22;6230;52.390;10.256;2024-02-04T09:18:50;11.70;73.70
12329;DHT22;6230;52.390;10.256;2024-02-04T09:21:16;11.70;73.60
12329;DHT22;6230;52.390;10.256;2024-02-04T09:23:41;11.70;73.60
12329;DHT22;6230;52.390;10.256;2024-02-04T09:26:07;11.70;73.60
12329;DHT22;6230;52.390;10.256;2024-02-04T09:28:33;11.70;73.50
12329;DHT22;6230;52.390;10.256;2024-02-04T09:30:58;11.70;73.50
12329;DHT22;6230;52.390;10.256;2024-02-04T09:33:24;11.70;73.40
12329;DHT22;6230;52.390;10.256;2024-02-04T09:35:50;11.70;74.10
12329;DHT22;6230;52.390;10.256;2024-02-04T09:38:15;11.70;73.40
12329;DHT22;6230;52.390;10.256;2024-02-04T09:40:41;11.60;73.30
12329;DHT22;6230;52.390;10.256;2024-02-04T09:43:06;11.60;73.20
12329;DHT22;6230;52.390;10.256;2024-02-04T09:45:33;11.60;73.20
12329;DHT22;6230;52.390;10.256;2024-02-04T09:47:58;11.60;73.30
12329;DHT22;6230;52.390;10.256;2024-02-04T09:50:25;11.60;73.10
12329;DHT22;6230;52.390;10.256;2024-02-04T09:52:55;11.60;73.10
12329;DHT22;6230;52.390;10.256;2024-02-04T09:55:22;11.60;73.20
12329;DHT22;6230;52.390;10.256;2024-02-04T09:57:48;11.60;73.20
12329;DHT22;6230;52.390;10.256;2024-02-04T10:00:14;11.60;73.10
12329;DHT22;6230;52.390;10.256;2024-02-04T10:02:44;11.60;73.00
12329;DHT22;6230;52.390;10.256;2024-02-04T10:05:10;11.60;73.00
12329;DHT22;6230;52.390;10.256;2024-02-04T10:07:36;11.60;73.00
12329;DHT22;6230;52.390;10.256;2024-02-04T10:10:02;11.60;73.00
12329;DHT22;6230;52.390;10.256;2024-02-04T10:12:27;11.60;73.00
12329;DHT22;6230;52.390;10.256;2024-02-04T10:14:53;11.60;72.90
12329;DHT22;6230;52.390;10.256;2024-02-04T10:17:19;11.70;72.90
12329;DHT22;6230;52.390;10.256;2024-02-04T10:19:48;11.60;72.80
12329;DHT22;6230;52.390;10.256;2024-02-04T10:22:14;11.60;72.70
12329;DHT22;6230;52.390;10.256;2024-02-04T10:24:42;11.60;72.80
12329;DHT22;6230;52.390;10.256;2024-02-04T10:27:10;11.60;72.80
12329;DHT22;6230;52.390;10.256;2024-02-04T10:29:36;11.60;72.70
12329;DHT22;6230;52.390;10.256;2024-02-04T10:32:02;11.60;72.60
12329;DHT22;6230;52.390;10.256;2024-02-04T10:34:28;11.60;72.70
12329;DHT22;6230;52.390;10.256;2024-02-04T10:36:56;11.60;72.60
12329;DHT22;6230;52.390;10.256;2024-02-04T10:39:21;11.60;72.50
12329;DHT22;6230;52.390;10.256;2024-02-04T10:41:51;11.60;72.60
12329;DHT22;6230;52.390;10.256;2024-02-04T10:44:19;11.50;72.50
12329;DHT22;6230;52.390;10.256;2024-02-04T10:46:50;11.60;72.50
12329;DHT22;6230;52.390;10.256;2024-02-04T10:49:18;11.60;72.60
12329;DHT22;6230;52.390;10.256;2024-02-04T10:51:45;11.50;72.40
12329;DHT22;6230;52.390;10.256;2024-02-04T10:54:12;11.50;72.40
12329;DHT22;6230;52.390;10.256;2024-02-04T10:56:43;11.60;72.50
12329;DHT22;6230;52.390;10.256;2024-02-04T10:59:17;11.60;72.60
12329;DHT22;6230;52.390;10.256;2024-02-04T11:01:45;11.60;72.70
12329;DHT22;6230;52.390;10.256;2024-02-04T11:04:14;11.70;72.80
12329;DHT22;6230;52.390;10.256;2024-02-04T11:06:44;11.80;72.70
12329;DHT22;6230;52.390;10.256;2024-02-04T11:09:11;11.80;72.60
12329;DHT22;6230;52.390;10.256;2024-02-04T11:11:38;11.80;72.50
12329;DHT22;6230;52.390;10.256;2024-02-04T11:14:06;11.90;72.50
12329;DHT22;6230;52.390;10.256;2024-02-04T11:22:17;11.90;72.20
12329;DHT22;6230;52.390;10.256;2024-02-04T11:27:29;12.00;72.20
12329;DHT22;6230;52.390;10.256;2024-02-04T11:29:56;12.00;72.20
12329;DHT22;6230;52.390;10.256;2024-02-04T11:32:21;12.00;72.20
12329;DHT22;6230;52.390;10.256;2024-02-04T11:34:49;12.00;72.20
12329;DHT22;6230;52.390;10.256;2024-02-04T11:37:18;12.00;72.00
12329;DHT22;6230;52.390;10.256;2024-02-04T11:39:51;12.00;72.10
12329;DHT22;6230;52.390;10.256;2024-02-04T11:42:17;12.00;72.10
12329;DHT22;6230;52.390;10.256;2024-02-04T11:44:44;12.00;72.20
12329;DHT22;6230;52.390;10.256;2024-02-04T11:47:10;12.10;72.10
12329;DHT22;6230;52.390;10.256;2024-02-04T11:49:36;12.00;72.10
12329;DHT22;6230;52.390;10.256;2024-02-04T11:52:01;12.00;72.00
12329;DHT22;6230;52.390;10.256;2024-02-04T11:54:27;12.00;72.00
12329;DHT22;6230;52.390;10.256;2024-02-04T11:56:53;12.10;72.10
12329;DHT22;6230;52.390;10.256;2024-02-04T11:59:23;12.10;72.00
12329;DHT22;6230;52.390;10.256;2024-02-04T12:01:53;12.10;72.00
12329;DHT22;6230;52.390;10.256;2024-02-04T12:04:19;12.10;71.90
12329;DHT22;6230;52.390;10.256;2024-02-04T12:06:45;12.10;72.00
12329;DHT22;6230;52.390;10.256;2024-02-04T12:09:12;12.10;71.70
12329;DHT22;6230;52.390;10.256;2024-02-04T12:11:44;12.10;71.70
12329;DHT22;6230;52.390;10.256;2024-02-04T12:14:10;12.10;71.70
12329;DHT22;6230;52.390;10.256;2024-02-04T12:16:36;12.10;71.60
12329;DHT22;6230;52.390;10.256;2024-02-04T12:19:05;12.10;71.60
12329;DHT22;6230;52.390;10.256;2024-02-04T12:21:31;12.10;71.60
12329;DHT22;6230;52.390;10.256;2024-02-04T12:23:58;12.10;71.60
12329;DHT22;6230;52.390;10.256;2024-02-04T12:26:24;12.10;71.50
12329;DHT22;6230;52.390;10.256;2024-02-04T12:28:52;12.10;71.50
12329;DHT22;6230;52.390;10.256;2024-02-04T12:31:24;12.10;71.50
12329;DHT22;6230;52.390;10.256;2024-02-04T12:33:58;12.10;71.50
12329;DHT22;6230;52.390;10.256;2024-02-04T12:36:26;12.10;71.40
12329;DHT22;6230;52.390;10.256;2024-02-04T12:38:53;12.10;71.40
12329;DHT22;6230;52.390;10.256;2024-02-04T12:41:19;12.10;71.30
12329;DHT22;6230;52.390;10.256;2024-02-04T12:43:58;12.20;71.40
12329;DHT22;6230;52.390;10.256;2024-02-04T12:46:26;12.10;71.30
12329;DHT22;6230;52.390;10.256;2024-02-04T12:48:56;12.20;71.30
12329;DHT22;6230;52.390;10.256;2024-02-04T12:51:25;12.20;71.20
12329;DHT22;6230;52.390;10.256;2024-02-04T12:54:11;12.20;71.20
12329;DHT22;6230;52.390;10.256;2024-02-04T12:56:49;12.20;71.20
12329;DHT22;6230;52.390;10.256;2024-02-04T13:01:58;12.20;71.00
12329;DHT22;6230;52.390;10.256;2024-02-04T13:04:24;12.20;71.00
12329;DHT22;6230;52.390;10.256;2024-02-04T13:06:50;12.20;71.00
12329;DHT22;6230;52.390;10.256;2024-02-04T13:09:17;12.20;71.10
12329;DHT22;6230;52.390;10.256;2024-02-04T13:11:43;12.20;71.00
12329;DHT22;6230;52.390;10.256;2024-02-04T13:14:09;12.20;70.80
12329;DHT22;6230;52.390;10.256;2024-02-04T13:16:35;12.20;70.90
12329;DHT22;6230;52.390;10.256;2024-02-04T13:19:03;12.20;70.70
12329;DHT22;6230;52.390;10.256;2024-02-04T13:21:29;12.20;70.80
12329;DHT22;6230;52.390;10.256;2024-02-04T13:23:55;12.20;70.80
12329;DHT22;6230;52.390;10.256;2024-02-04T13:26:20;12.10;70.80
12329;DHT22;6230;52.390;10.256;2024-02-04T13:28:46;12.20;70.80
12329;DHT22;6230;52.390;10.256;2024-02-04T13:31:12;12.20;70.80
12329;DHT22;6230;52.390;10.256;2024-02-04T13:33:38;12.20;70.80
12329;DHT22;6230;52.390;10.256;2024-02-04T13:36:06;12.20;70.80
12329;DHT22;6230;52.390;10.256;2024-02-04T13:38:32;12.10;70.70
12329;DHT22;6230;52.390;10.256;2024-02-04T13:40:57;12.10;70.80
12329;DHT22;6230;52.390;10.256;2024-02-04T13:43:23;12.20;70.70
12329;DHT22;6230;52.390;10.256;2024-02-04T13:45:48;12.10;70.60
12329;DHT22;6230;52.390;10.256;2024-02-04T13:48:14;12.10;70.70
12329;DHT22;6230;52.390;10.256;2024-02-04T13:50:40;12.10;70.70
12329;DHT22;6230;52.390;10.256;2024-02-04T13:53:05;12.10;70.70
12329;DHT22;6230;52.390;10.256;2024-02-04T13:55:31;12.10;70.60
12329;DHT22;6230;52.390;10.256;2024-02-04T13:57:57;12.10;70.70
12329;DHT22;6230;52.390;10.256;2024-02-04T14:00:22;12.10;70.70
12329;DHT22;6230;52.390;10.256;2024-02-04T14:02:48;12.10;70.60
12329;DHT22;6230;52.390;10.256;2024-02-04T14:05:15;12.10;70.60
12329;DHT22;6230;52.390;10.256;2024-02-04T14:07:40;12.10;70.60
12329;DHT22;6230;52.390;10.256;2024-02-04T14:10:06;12.10;70.60
12329;DHT22;6230;52.390;10.256;2024-02-04T14:12:33;12.10;70.70
12329;DHT22;6230;52.390;10.256;2024-02-04T14:14:59;12.10;70.70
12329;DHT22;6230;52.390;10.256;2024-02-04T14:17:24;12.10;71.50
12329;DHT22;6230;52.390;10.256;2024-02-04T14:19:50;12.10;70.60
12329;DHT22;6230;52.390;10.256;2024-02-04T14:22:17;12.10;70.60
12329;DHT22;6230;52.390;10.256;2024-02-04T14:24:43;12.10;70.60
12329;DHT22;6230;52.390;10.256;2024-02-04T14:27:11;12.10;70.60
12329;DHT22;6230;52.390;10.256;2024-02-04T14:29:36;12.10;70.60
12329;DHT22;6230;52.390;10.256;2024-02-04T14:32:02;12.10;70.70
12329;DHT22;6230;52.390;10.256;2024-02-04T14:34:28;12.10;70.60
12329;DHT22;6230;52.390;10.256;2024-02-04T14:36:53;12.10;70.70
12329;DHT22;6230;52.390;10.256;2024-02-04T14:39:19;12.10;70.70
12329;DHT22;6230;52.390;10.256;2024-02-04T14:41:45;12.10;70.60
12329;DHT22;6230;52.390;10.256;2024-02-04T14:44:10;12.10;70.60
12329;DHT22;6230;52.390;10.256;2024-02-04T14:46:38;12.10;70.70
12329;DHT22;6230;52.390;10.256;2024-02-04T14:49:04;12.10;70.70
12329;DHT22;6230;52.390;10.256;2024-02-04T14:51:30;12.10;70.70
12329;DHT22;6230;52.390;10.256;2024-02-04T14:53:58;12.20;70.70
12329;DHT22;6230;52.390;10.256;2024-02-04T14:56:24;12.10;70.60
12329;DHT22;6230;52.390;10.256;2024-02-04T14:58:49;12.10;70.50
12329;DHT22;6230;52.390;10.256;2024-02-04T15:01:15;12.10;70.60
12329;DHT22;6230;52.390;10.256;2024-02-04T15:03:41;12.10;70.60
12329;DHT22;6230;52.390;10.256;2024-02-04T15:06:07;12.10;70.70
12329;DHT22;6230;52.390;10.256;2024-02-04T15:08:32;12.10;70.70
12329;DHT22;6230;52.390;10.256;2024-02-04T15:10:58;12.10;70.70
12329;DHT22;6230;52.390;10.256;2024-02-04T15:13:24;12.10;70.70
12329;DHT22;6230;52.390;10.256;2024-02-04T15:15:49;12.10;70.70
12329;DHT22;6230;52.390;10.256;2024-02-04T15:18:15;12.10;70.70
12329;DHT22;6230;52.390;10.256;2024-02-04T15:20:41;12.10;70.70
12329;DHT22;6230;52.390;10.256;2024-02-04T15:23:07;12.10;70.80
12329;DHT22;6230;52.390;10.256;2024-02-04T15:25:33;12.10;70.70
12329;DHT22;6230;52.390;10.256;2024-02-04T15:27:59;12.10;70.80
12329;DHT22;6230;52.390;10.256;2024-02-04T15:30:25;12.10;70.80
12329;DHT22;6230;52.390;10.256;2024-02-04T15:32:51;12.00;70.80
12329;DHT22;6230;52.390;10.256;2024-02-04T15:35:18;12.00;70.90
12329;DHT22;6230;52.390;10.256;2024-02-04T15:37:44;12.00;70.80
12329;DHT22;6230;52.390;10.256;2024-02-04T15:40:12;12.00;70.80